CheckWX is a tool to help pilots better visualize weather data.  It is not intended as a substitute for an official pre-flight weather briefing.

18:31:33 UTC

KFKL TAF
Venango Regional Airport
Franklin, Pennsylvania, USA
KFKL 211735Z 2118/2218 18010G18KT P6SM BKN150 FM212300 20014KT P6SM VCSH OVC050 WS020/23040KT FM220300 23014KT P6SM -SHRA OVC015 WS020/24040KT FM220700 26013KT 6SM -SHRA OVC008 FM221400 29012G20KT P6SM VCSH OVC015

Nov-21@
18:00 UTC

Nov-21 @ 18:00 UTC

Nov-21@
23:00 UTC

Nov-21 @ 23:00 UTC

KFKL 211735Z 2118/2218 18010G18KT P6SM BKN150
Wind
  • 180° at 10 KTS
  • {Gusting to 18 KTS
Cloud Levels
  • Broken at 15,000' AGL

Nov-21@
23:00 UTC

Nov-21 @ 23:00 UTC

Nov-22@
03:00 UTC

Nov-22 @ 03:00 UTC

FM212300 20014KT P6SM VCSH OVC050 WS020/23040KT

From

From Standard forecast or significant change

Wind
  • 200° at 14 KTS
Cloud Levels
  • Overcast at 5,000' AGL

Nov-22@
03:00 UTC

Nov-22 @ 03:00 UTC

Nov-22@
07:00 UTC

Nov-22 @ 07:00 UTC

FM220300 23014KT P6SM -SHRA OVC015 WS020/24040KT

From

From Standard forecast or significant change

Wind
  • 230° at 14 KTS
Conditions
Light Rain
Cloud Levels
  • Overcast at 1,500' AGL

Nov-22@
07:00 UTC

Nov-22 @ 07:00 UTC

Nov-22@
14:00 UTC

Nov-22 @ 14:00 UTC

FM220700 26013KT 6SM -SHRA OVC008

From

From Standard forecast or significant change

Wind
  • 260° at 13 KTS
Conditions
Light Rain
Cloud Levels
  • Overcast at 800' AGL

Nov-22@
14:00 UTC

Nov-22 @ 14:00 UTC

Nov-22@
18:00 UTC

Nov-22 @ 18:00 UTC

FM221400 29012G20KT P6SM VCSH OVC015

From

From Standard forecast or significant change

Wind
  • 290° at 12 KTS
  • {Gusting to 20 KTS
Cloud Levels
  • Overcast at 1,500' AGL